sensor_id;sensor_type;location;lat;lon;timestamp;P1;durP1;ratioP1;P2;durP2;ratioP2
69246;SDS011;56358;56.328;43.992;2023-01-01T00:01:33;55.53;;;18.98;;
69246;SDS011;56358;56.328;43.992;2023-01-01T00:03:39;48.17;;;18.73;;
69246;SDS011;56358;56.328;43.992;2023-01-01T00:05:39;50.50;;;19.38;;
69246;SDS011;56358;56.328;43.992;2023-01-01T00:07:40;58.60;;;20.42;;
69246;SDS011;56358;56.328;43.992;2023-01-01T00:09:41;60.55;;;21.52;;
69246;SDS011;56358;56.328;43.992;2023-01-01T00:12:00;54.58;;;20.80;;
69246;SDS011;56358;56.328;43.992;2023-01-01T00:14:00;56.85;;;20.50;;
69246;SDS011;56358;56.328;43.992;2023-01-01T00:18:06;47.67;;;17.25;;
69246;SDS011;56358;56.328;43.992;2023-01-01T00:20:06;46.28;;;15.95;;
69246;SDS011;56358;56.328;43.992;2023-01-01T00:22:07;47.38;;;17.00;;
69246;SDS011;56358;56.328;43.992;2023-01-01T00:24:08;53.63;;;16.08;;
69246;SDS011;56358;56.328;43.992;2023-01-01T00:26:10;44.78;;;15.60;;
69246;SDS011;56358;56.328;43.992;2023-01-01T00:28:12;42.72;;;16.17;;
69246;SDS011;56358;56.328;43.992;2023-01-01T00:30:13;36.25;;;14.38;;
69246;SDS011;56358;56.328;43.992;2023-01-01T00:32:14;40.05;;;14.85;;
69246;SDS011;56358;56.328;43.992;2023-01-01T00:34:14;38.92;;;14.55;;
69246;SDS011;56358;56.328;43.992;2023-01-01T00:36:15;38.42;;;13.93;;
69246;SDS011;56358;56.328;43.992;2023-01-01T00:38:16;40.63;;;14.88;;
69246;SDS011;56358;56.328;43.992;2023-01-01T00:40:17;41.92;;;15.90;;
69246;SDS011;56358;56.328;43.992;2023-01-01T00:42:18;46.10;;;16.27;;
69246;SDS011;56358;56.328;43.992;2023-01-01T00:44:19;39.40;;;15.38;;
69246;SDS011;56358;56.328;43.992;2023-01-01T00:46:20;36.97;;;13.20;;
69246;SDS011;56358;56.328;43.992;2023-01-01T00:48:20;34.83;;;13.18;;
69246;SDS011;56358;56.328;43.992;2023-01-01T00:50:21;28.27;;;11.45;;
69246;SDS011;56358;56.328;43.992;2023-01-01T00:52:23;21.48;;;9.95;;
69246;SDS011;56358;56.328;43.992;2023-01-01T00:54:24;29.25;;;11.48;;
69246;SDS011;56358;56.328;43.992;2023-01-01T00:56:24;28.33;;;11.02;;
69246;SDS011;56358;56.328;43.992;2023-01-01T00:58:25;21.88;;;8.13;;
69246;SDS011;56358;56.328;43.992;2023-01-01T01:00:26;28.70;;;10.05;;
69246;SDS011;56358;56.328;43.992;2023-01-01T01:02:26;29.48;;;10.93;;
69246;SDS011;56358;56.328;43.992;2023-01-01T01:04:27;26.90;;;9.02;;
69246;SDS011;56358;56.328;43.992;2023-01-01T01:06:28;27.45;;;9.82;;
69246;SDS011;56358;56.328;43.992;2023-01-01T01:08:32;29.35;;;11.23;;
69246;SDS011;56358;56.328;43.992;2023-01-01T01:10:34;24.05;;;8.85;;
69246;SDS011;56358;56.328;43.992;2023-01-01T01:12:34;30.52;;;10.60;;
69246;SDS011;56358;56.328;43.992;2023-01-01T01:14:35;26.58;;;9.30;;
69246;SDS011;56358;56.328;43.992;2023-01-01T01:16:36;25.88;;;8.98;;
69246;SDS011;56358;56.328;43.992;2023-01-01T01:18:36;22.70;;;8.60;;
69246;SDS011;56358;56.328;43.992;2023-01-01T01:20:37;27.27;;;9.18;;
69246;SDS011;56358;56.328;43.992;2023-01-01T01:22:38;30.05;;;9.70;;
69246;SDS011;56358;56.328;43.992;2023-01-01T01:24:39;27.13;;;9.75;;
69246;SDS011;56358;56.328;43.992;2023-01-01T01:26:39;26.70;;;8.63;;
69246;SDS011;56358;56.328;43.992;2023-01-01T01:28:41;28.65;;;9.63;;
69246;SDS011;56358;56.328;43.992;2023-01-01T01:30:42;26.05;;;9.30;;
69246;SDS011;56358;56.328;43.992;2023-01-01T01:32:42;25.75;;;9.00;;
69246;SDS011;56358;56.328;43.992;2023-01-01T01:34:43;23.95;;;10.02;;
69246;SDS011;56358;56.328;43.992;2023-01-01T01:36:44;28.08;;;9.85;;
69246;SDS011;56358;56.328;43.992;2023-01-01T01:38:45;26.50;;;8.60;;
69246;SDS011;56358;56.328;43.992;2023-01-01T01:40:46;20.98;;;8.88;;
69246;SDS011;56358;56.328;43.992;2023-01-01T01:42:47;28.95;;;9.73;;
69246;SDS011;56358;56.328;43.992;2023-01-01T01:44:50;25.05;;;8.57;;
69246;SDS011;56358;56.328;43.992;2023-01-01T01:46:52;23.38;;;9.00;;
69246;SDS011;56358;56.328;43.992;2023-01-01T01:48:55;20.88;;;7.82;;
69246;SDS011;56358;56.328;43.992;2023-01-01T01:51:00;11.68;;;4.75;;
69246;SDS011;56358;56.328;43.992;2023-01-01T01:55:14;15.95;;;5.90;;
69246;SDS011;56358;56.328;43.992;2023-01-01T01:57:15;15.77;;;5.93;;
69246;SDS011;56358;56.328;43.992;2023-01-01T01:59:16;16.42;;;6.90;;
69246;SDS011;56358;56.328;43.992;2023-01-01T02:03:35;13.75;;;4.93;;
69246;SDS011;56358;56.328;43.992;2023-01-01T02:05:42;7.65;;;3.10;;
69246;SDS011;56358;56.328;43.992;2023-01-01T02:07:44;10.13;;;3.90;;
69246;SDS011;56358;56.328;43.992;2023-01-01T02:09:46;9.27;;;3.88;;
69246;SDS011;56358;56.328;43.992;2023-01-01T02:11:46;6.82;;;3.20;;
69246;SDS011;56358;56.328;43.992;2023-01-01T02:13:47;12.48;;;4.88;;
69246;SDS011;56358;56.328;43.992;2023-01-01T02:20:15;13.90;;;5.50;;
69246;SDS011;56358;56.328;43.992;2023-01-01T02:24:41;10.68;;;3.92;;
69246;SDS011;56358;56.328;43.992;2023-01-01T02:27:02;10.60;;;4.43;;
69246;SDS011;56358;56.328;43.992;2023-01-01T02:31:25;10.15;;;3.78;;
69246;SDS011;56358;56.328;43.992;2023-01-01T02:33:30;8.07;;;3.65;;
69246;SDS011;56358;56.328;43.992;2023-01-01T02:35:35;9.15;;;3.67;;
69246;SDS011;56358;56.328;43.992;2023-01-01T02:37:41;9.35;;;3.80;;
69246;SDS011;56358;56.328;43.992;2023-01-01T02:39:46;6.68;;;3.50;;
69246;SDS011;56358;56.328;43.992;2023-01-01T02:41:52;7.50;;;3.30;;
69246;SDS011;56358;56.328;43.992;2023-01-01T02:43:55;6.40;;;2.97;;
69246;SDS011;56358;56.328;43.992;2023-01-01T02:45:56;6.30;;;2.65;;
69246;SDS011;56358;56.328;43.992;2023-01-01T02:48:01;6.93;;;2.88;;
69246;SDS011;56358;56.328;43.992;2023-01-01T02:50:06;5.72;;;2.50;;
69246;SDS011;56358;56.328;43.992;2023-01-01T02:52:55;4.97;;;2.22;;
69246;SDS011;56358;56.328;43.992;2023-01-01T03:02:18;6.20;;;2.40;;
69246;SDS011;56358;56.328;43.992;2023-01-01T03:04:30;3.83;;;1.88;;
69246;SDS011;56358;56.328;43.992;2023-01-01T03:06:46;4.35;;;2.20;;
69246;SDS011;56358;56.328;43.992;2023-01-01T03:11:08;4.00;;;2.33;;
69246;SDS011;56358;56.328;43.992;2023-01-01T03:15:23;5.78;;;1.98;;
69246;SDS011;56358;56.328;43.992;2023-01-01T03:17:28;4.68;;;2.15;;
69246;SDS011;56358;56.328;43.992;2023-01-01T03:19:36;4.78;;;2.00;;
69246;SDS011;56358;56.328;43.992;2023-01-01T03:21:41;3.10;;;1.70;;
69246;SDS011;56358;56.328;43.992;2023-01-01T03:23:54;6.72;;;2.20;;
69246;SDS011;56358;56.328;43.992;2023-01-01T03:25:56;4.43;;;2.13;;
69246;SDS011;56358;56.328;43.992;2023-01-01T03:28:45;5.70;;;2.33;;
69246;SDS011;56358;56.328;43.992;2023-01-01T03:30:33;4.20;;;1.92;;
69246;SDS011;56358;56.328;43.992;2023-01-01T03:32:41;6.07;;;2.50;;
69246;SDS011;56358;56.328;43.992;2023-01-01T03:35:07;4.85;;;2.38;;
69246;SDS011;56358;56.328;43.992;2023-01-01T03:37:10;5.10;;;2.63;;
69246;SDS011;56358;56.328;43.992;2023-01-01T03:39:16;5.88;;;2.53;;
69246;SDS011;56358;56.328;43.992;2023-01-01T03:43:48;4.25;;;2.08;;
69246;SDS011;56358;56.328;43.992;2023-01-01T03:45:53;4.75;;;2.40;;
69246;SDS011;56358;56.328;43.992;2023-01-01T03:47:55;4.10;;;2.30;;
69246;SDS011;56358;56.328;43.992;2023-01-01T03:49:56;4.53;;;1.92;;
69246;SDS011;56358;56.328;43.992;2023-01-01T03:58:52;6.30;;;2.15;;
69246;SDS011;56358;56.328;43.992;2023-01-01T04:01:22;5.22;;;2.17;;
69246;SDS011;56358;56.328;43.992;2023-01-01T04:03:27;5.13;;;2.08;;
69246;SDS011;56358;56.328;43.992;2023-01-01T04:05:30;3.90;;;1.90;;
69246;SDS011;56358;56.328;43.992;2023-01-01T04:07:34;3.38;;;1.67;;
69246;SDS011;56358;56.328;43.992;2023-01-01T04:09:35;3.67;;;1.80;;
69246;SDS011;56358;56.328;43.992;2023-01-01T04:11:37;3.03;;;1.52;;
69246;SDS011;56358;56.328;43.992;2023-01-01T04:13:59;3.22;;;1.65;;
69246;SDS011;56358;56.328;43.992;2023-01-01T04:16:00;3.38;;;1.60;;
69246;SDS011;56358;56.328;43.992;2023-01-01T04:18:01;3.70;;;1.88;;
69246;SDS011;56358;56.328;43.992;2023-01-01T04:20:02;4.00;;;1.90;;
69246;SDS011;56358;56.328;43.992;2023-01-01T04:22:04;2.63;;;1.60;;
69246;SDS011;56358;56.328;43.992;2023-01-01T04:24:05;3.00;;;1.50;;
69246;SDS011;56358;56.328;43.992;2023-01-01T04:26:10;2.22;;;1.38;;
69246;SDS011;56358;56.328;43.992;2023-01-01T04:28:14;2.58;;;1.50;;
69246;SDS011;56358;56.328;43.992;2023-01-01T04:30:14;3.35;;;1.60;;
69246;SDS011;56358;56.328;43.992;2023-01-01T04:32:16;4.28;;;1.50;;
69246;SDS011;56358;56.328;43.992;2023-01-01T04:34:16;2.15;;;1.40;;
69246;SDS011;56358;56.328;43.992;2023-01-01T04:36:17;1.95;;;1.55;;
69246;SDS011;56358;56.328;43.992;2023-01-01T04:38:18;3.13;;;1.67;;
69246;SDS011;56358;56.328;43.992;2023-01-01T04:40:19;2.40;;;1.40;;
69246;SDS011;56358;56.328;43.992;2023-01-01T04:42:19;2.20;;;1.17;;
69246;SDS011;56358;56.328;43.992;2023-01-01T04:44:20;2.30;;;1.30;;
69246;SDS011;56358;56.328;43.992;2023-01-01T04:46:21;2.58;;;1.40;;
69246;SDS011;56358;56.328;43.992;2023-01-01T04:48:23;2.72;;;1.23;;
69246;SDS011;56358;56.328;43.992;2023-01-01T04:50:24;3.08;;;1.42;;
69246;SDS011;56358;56.328;43.992;2023-01-01T04:52:25;2.70;;;1.33;;
69246;SDS011;56358;56.328;43.992;2023-01-01T04:54:26;2.78;;;1.65;;
69246;SDS011;56358;56.328;43.992;2023-01-01T04:56:27;3.45;;;1.80;;
69246;SDS011;56358;56.328;43.992;2023-01-01T04:58:28;3.35;;;1.52;;
69246;SDS011;56358;56.328;43.992;2023-01-01T05:00:32;3.80;;;1.65;;
69246;SDS011;56358;56.328;43.992;2023-01-01T05:02:32;4.10;;;1.80;;
69246;SDS011;56358;56.328;43.992;2023-01-01T05:04:33;3.08;;;1.75;;
69246;SDS011;56358;56.328;43.992;2023-01-01T05:06:34;3.47;;;1.70;;
69246;SDS011;56358;56.328;43.992;2023-01-01T05:08:35;3.30;;;1.98;;
69246;SDS011;56358;56.328;43.992;2023-01-01T05:10:37;7.93;;;3.08;;
69246;SDS011;56358;56.328;43.992;2023-01-01T05:12:38;3.85;;;1.83;;
69246;SDS011;56358;56.328;43.992;2023-01-01T05:14:38;2.35;;;1.45;;
69246;SDS011;56358;56.328;43.992;2023-01-01T05:16:39;3.28;;;1.65;;
69246;SDS011;56358;56.328;43.992;2023-01-01T05:18:40;2.45;;;1.42;;
69246;SDS011;56358;56.328;43.992;2023-01-01T05:20:41;3.17;;;1.30;;
69246;SDS011;56358;56.328;43.992;2023-01-01T05:22:44;2.08;;;1.23;;
69246;SDS011;56358;56.328;43.992;2023-01-01T05:26:46;3.35;;;1.50;;
69246;SDS011;56358;56.328;43.992;2023-01-01T05:28:47;3.67;;;1.60;;
69246;SDS011;56358;56.328;43.992;2023-01-01T05:30:50;2.97;;;1.58;;
69246;SDS011;56358;56.328;43.992;2023-01-01T05:32:52;3.03;;;1.52;;
69246;SDS011;56358;56.328;43.992;2023-01-01T05:34:53;2.30;;;1.33;;
69246;SDS011;56358;56.328;43.992;2023-01-01T05:36:54;2.75;;;1.60;;
69246;SDS011;56358;56.328;43.992;2023-01-01T05:38:55;3.47;;;1.70;;
69246;SDS011;56358;56.328;43.992;2023-01-01T05:40:56;2.85;;;1.63;;
69246;SDS011;56358;56.328;43.992;2023-01-01T05:42:57;2.83;;;1.48;;
69246;SDS011;56358;56.328;43.992;2023-01-01T05:44:58;2.22;;;1.35;;
69246;SDS011;56358;56.328;43.992;2023-01-01T05:46:59;2.45;;;1.67;;
69246;SDS011;56358;56.328;43.992;2023-01-01T05:48:59;2.53;;;1.35;;
69246;SDS011;56358;56.328;43.992;2023-01-01T05:51:01;3.30;;;1.60;;
69246;SDS011;56358;56.328;43.992;2023-01-01T05:53:03;2.78;;;1.60;;
69246;SDS011;56358;56.328;43.992;2023-01-01T05:55:04;2.80;;;1.60;;
69246;SDS011;56358;56.328;43.992;2023-01-01T05:57:05;2.60;;;1.60;;
69246;SDS011;56358;56.328;43.992;2023-01-01T05:59:06;4.93;;;1.77;;
69246;SDS011;56358;56.328;43.992;2023-01-01T06:01:09;3.43;;;2.00;;
69246;SDS011;56358;56.328;43.992;2023-01-01T06:03:17;4.57;;;2.00;;
69246;SDS011;56358;56.328;43.992;2023-01-01T06:05:18;2.95;;;1.90;;
69246;SDS011;56358;56.328;43.992;2023-01-01T06:07:19;3.03;;;1.80;;
69246;SDS011;56358;56.328;43.992;2023-01-01T06:09:19;5.35;;;1.88;;
69246;SDS011;56358;56.328;43.992;2023-01-01T06:11:20;2.88;;;1.52;;
69246;SDS011;56358;56.328;43.992;2023-01-01T06:13:21;3.97;;;1.90;;
69246;SDS011;56358;56.328;43.992;2023-01-01T06:15:21;4.07;;;2.00;;
69246;SDS011;56358;56.328;43.992;2023-01-01T06:17:22;3.35;;;1.88;;
69246;SDS011;56358;56.328;43.992;2023-01-01T06:19:22;3.55;;;1.92;;
69246;SDS011;56358;56.328;43.992;2023-01-01T06:21:23;3.83;;;2.13;;
69246;SDS011;56358;56.328;43.992;2023-01-01T06:23:25;3.75;;;2.35;;
69246;SDS011;56358;56.328;43.992;2023-01-01T06:25:26;5.00;;;2.15;;
69246;SDS011;56358;56.328;43.992;2023-01-01T06:27:27;4.30;;;2.38;;
69246;SDS011;56358;56.328;43.992;2023-01-01T06:29:27;5.10;;;2.42;;
69246;SDS011;56358;56.328;43.992;2023-01-01T06:31:28;4.88;;;2.22;;
69246;SDS011;56358;56.328;43.992;2023-01-01T06:33:29;4.25;;;2.08;;
69246;SDS011;56358;56.328;43.992;2023-01-01T06:35:32;4.15;;;2.20;;
69246;SDS011;56358;56.328;43.992;2023-01-01T06:37:32;5.25;;;2.10;;
69246;SDS011;56358;56.328;43.992;2023-01-01T06:39:33;5.25;;;2.60;;
69246;SDS011;56358;56.328;43.992;2023-01-01T06:41:34;5.63;;;2.60;;
69246;SDS011;56358;56.328;43.992;2023-01-01T06:43:35;4.65;;;2.72;;
69246;SDS011;56358;56.328;43.992;2023-01-01T06:45:36;4.65;;;2.45;;
69246;SDS011;56358;56.328;43.992;2023-01-01T06:47:36;6.65;;;3.13;;
69246;SDS011;56358;56.328;43.992;2023-01-01T06:49:37;6.10;;;2.90;;
69246;SDS011;56358;56.328;43.992;2023-01-01T06:51:41;5.43;;;2.72;;
69246;SDS011;56358;56.328;43.992;2023-01-01T06:53:42;6.20;;;3.42;;
69246;SDS011;56358;56.328;43.992;2023-01-01T06:55:47;5.72;;;3.05;;
69246;SDS011;56358;56.328;43.992;2023-01-01T06:57:50;6.10;;;3.10;;
69246;SDS011;56358;56.328;43.992;2023-01-01T06:59:51;5.97;;;2.80;;
69246;SDS011;56358;56.328;43.992;2023-01-01T07:01:52;6.30;;;3.05;;
69246;SDS011;56358;56.328;43.992;2023-01-01T07:03:54;6.32;;;3.20;;
69246;SDS011;56358;56.328;43.992;2023-01-01T07:06:03;5.20;;;2.83;;
69246;SDS011;56358;56.328;43.992;2023-01-01T07:08:04;4.93;;;3.10;;
69246;SDS011;56358;56.328;43.992;2023-01-01T07:10:05;5.05;;;2.78;;
69246;SDS011;56358;56.328;43.992;2023-01-01T07:12:06;5.15;;;3.10;;
69246;SDS011;56358;56.328;43.992;2023-01-01T07:14:08;4.40;;;3.03;;
69246;SDS011;56358;56.328;43.992;2023-01-01T07:16:08;4.32;;;2.60;;
69246;SDS011;56358;56.328;43.992;2023-01-01T07:18:09;3.30;;;2.03;;
69246;SDS011;56358;56.328;43.992;2023-01-01T07:20:10;4.80;;;2.75;;
69246;SDS011;56358;56.328;43.992;2023-01-01T07:22:11;4.82;;;2.58;;
69246;SDS011;56358;56.328;43.992;2023-01-01T07:24:12;4.85;;;2.80;;
69246;SDS011;56358;56.328;43.992;2023-01-01T07:26:14;4.35;;;2.55;;
69246;SDS011;56358;56.328;43.992;2023-01-01T07:28:15;5.15;;;3.20;;
69246;SDS011;56358;56.328;43.992;2023-01-01T07:30:15;5.10;;;3.00;;
69246;SDS011;56358;56.328;43.992;2023-01-01T07:32:16;5.75;;;2.60;;
69246;SDS011;56358;56.328;43.992;2023-01-01T07:34:17;3.83;;;2.47;;
69246;SDS011;56358;56.328;43.992;2023-01-01T07:36:18;4.53;;;2.63;;
69246;SDS011;56358;56.328;43.992;2023-01-01T07:38:19;5.10;;;2.58;;
69246;SDS011;56358;56.328;43.992;2023-01-01T07:40:20;5.22;;;2.60;;
69246;SDS011;56358;56.328;43.992;2023-01-01T07:42:20;4.68;;;2.63;;
69246;SDS011;56358;56.328;43.992;2023-01-01T07:44:21;4.90;;;2.78;;
69246;SDS011;56358;56.328;43.992;2023-01-01T07:46:21;5.70;;;2.80;;
69246;SDS011;56358;56.328;43.992;2023-01-01T07:48:22;5.47;;;2.95;;
69246;SDS011;56358;56.328;43.992;2023-01-01T07:50:23;4.60;;;2.60;;
69246;SDS011;56358;56.328;43.992;2023-01-01T07:52:25;5.32;;;2.70;;
69246;SDS011;56358;56.328;43.992;2023-01-01T07:54:26;4.85;;;2.42;;
69246;SDS011;56358;56.328;43.992;2023-01-01T07:56:26;5.55;;;3.03;;
69246;SDS011;56358;56.328;43.992;2023-01-01T07:58:27;6.15;;;2.88;;
69246;SDS011;56358;56.328;43.992;2023-01-01T08:00:28;5.18;;;2.97;;
69246;SDS011;56358;56.328;43.992;2023-01-01T08:02:29;5.40;;;2.90;;
69246;SDS011;56358;56.328;43.992;2023-01-01T08:04:29;4.88;;;2.85;;
69246;SDS011;56358;56.328;43.992;2023-01-01T08:06:30;5.55;;;3.00;;
69246;SDS011;56358;56.328;43.992;2023-01-01T08:08:31;5.75;;;3.00;;
69246;SDS011;56358;56.328;43.992;2023-01-01T08:10:31;4.85;;;2.88;;
69246;SDS011;56358;56.328;43.992;2023-01-01T08:12:32;6.53;;;2.90;;
69246;SDS011;56358;56.328;43.992;2023-01-01T08:14:33;5.72;;;2.97;;
69246;SDS011;56358;56.328;43.992;2023-01-01T08:16:33;6.45;;;2.70;;
69246;SDS011;56358;56.328;43.992;2023-01-01T08:18:34;4.40;;;2.92;;
69246;SDS011;56358;56.328;43.992;2023-01-01T08:20:35;4.82;;;2.53;;
69246;SDS011;56358;56.328;43.992;2023-01-01T08:22:36;4.70;;;2.50;;
69246;SDS011;56358;56.328;43.992;2023-01-01T08:24:36;5.70;;;2.80;;
69246;SDS011;56358;56.328;43.992;2023-01-01T08:26:37;6.65;;;3.33;;
69246;SDS011;56358;56.328;43.992;2023-01-01T08:28:38;5.30;;;3.00;;
69246;SDS011;56358;56.328;43.992;2023-01-01T08:30:39;4.40;;;2.60;;
69246;SDS011;56358;56.328;43.992;2023-01-01T08:32:40;5.70;;;2.90;;
69246;SDS011;56358;56.328;43.992;2023-01-01T08:34:41;4.78;;;2.67;;
69246;SDS011;56358;56.328;43.992;2023-01-01T08:36:41;6.25;;;3.20;;
69246;SDS011;56358;56.328;43.992;2023-01-01T08:38:42;6.95;;;2.80;;
69246;SDS011;56358;56.328;43.992;2023-01-01T08:40:43;5.07;;;2.70;;
69246;SDS011;56358;56.328;43.992;2023-01-01T08:42:43;6.32;;;2.90;;
69246;SDS011;56358;56.328;43.992;2023-01-01T08:44:44;5.03;;;2.95;;
69246;SDS011;56358;56.328;43.992;2023-01-01T08:46:45;5.28;;;2.95;;
69246;SDS011;56358;56.328;43.992;2023-01-01T08:48:46;5.03;;;2.70;;
69246;SDS011;56358;56.328;43.992;2023-01-01T08:50:53;5.80;;;2.78;;
69246;SDS011;56358;56.328;43.992;2023-01-01T08:52:54;6.20;;;2.72;;
69246;SDS011;56358;56.328;43.992;2023-01-01T08:54:56;5.32;;;2.58;;
69246;SDS011;56358;56.328;43.992;2023-01-01T08:56:57;7.30;;;3.17;;
69246;SDS011;56358;56.328;43.992;2023-01-01T08:58:57;5.22;;;2.90;;
69246;SDS011;56358;56.328;43.992;2023-01-01T09:00:58;4.82;;;2.22;;
69246;SDS011;56358;56.328;43.992;2023-01-01T09:02:59;5.57;;;2.63;;
69246;SDS011;56358;56.328;43.992;2023-01-01T09:04:59;5.72;;;2.60;;
69246;SDS011;56358;56.328;43.992;2023-01-01T09:07:00;4.35;;;2.15;;
69246;SDS011;56358;56.328;43.992;2023-01-01T09:09:00;4.45;;;2.17;;
69246;SDS011;56358;56.328;43.992;2023-01-01T09:11:01;6.20;;;2.42;;
69246;SDS011;56358;56.328;43.992;2023-01-01T09:13:03;4.18;;;2.40;;
69246;SDS011;56358;56.328;43.992;2023-01-01T09:15:04;5.57;;;2.38;;
69246;SDS011;56358;56.328;43.992;2023-01-01T09:17:05;4.93;;;2.38;;
69246;SDS011;56358;56.328;43.992;2023-01-01T09:19:06;4.05;;;2.30;;
69246;SDS011;56358;56.328;43.992;2023-01-01T09:21:06;4.75;;;2.30;;
69246;SDS011;56358;56.328;43.992;2023-01-01T09:23:07;4.30;;;2.03;;
69246;SDS011;56358;56.328;43.992;2023-01-01T09:25:08;6.00;;;2.30;;
69246;SDS011;56358;56.328;43.992;2023-01-01T09:27:08;4.57;;;2.50;;
69246;SDS011;56358;56.328;43.992;2023-01-01T09:29:09;4.80;;;2.03;;
69246;SDS011;56358;56.328;43.992;2023-01-01T09:31:10;4.30;;;2.53;;
69246;SDS011;56358;56.328;43.992;2023-01-01T09:33:10;3.20;;;1.88;;
69246;SDS011;56358;56.328;43.992;2023-01-01T09:35:11;5.50;;;2.47;;
69246;SDS011;56358;56.328;43.992;2023-01-01T09:37:11;4.60;;;2.33;;
69246;SDS011;56358;56.328;43.992;2023-01-01T09:39:13;5.55;;;2.20;;
69246;SDS011;56358;56.328;43.992;2023-01-01T09:41:25;6.23;;;2.20;;
69246;SDS011;56358;56.328;43.992;2023-01-01T09:46:07;5.03;;;2.63;;
69246;SDS011;56358;56.328;43.992;2023-01-01T09:48:10;4.50;;;2.20;;
69246;SDS011;56358;56.328;43.992;2023-01-01T09:50:19;4.43;;;2.10;;
69246;SDS011;56358;56.328;43.992;2023-01-01T09:52:22;4.80;;;2.40;;
69246;SDS011;56358;56.328;43.992;2023-01-01T09:56:42;6.00;;;2.58;;
69246;SDS011;56358;56.328;43.992;2023-01-01T09:58:45;5.38;;;2.30;;
69246;SDS011;56358;56.328;43.992;2023-01-01T10:00:46;4.90;;;2.13;;
69246;SDS011;56358;56.328;43.992;2023-01-01T10:03:01;4.20;;;2.20;;
69246;SDS011;56358;56.328;43.992;2023-01-01T10:14:53;5.13;;;2.55;;
69246;SDS011;56358;56.328;43.992;2023-01-01T10:17:02;6.90;;;2.95;;
69246;SDS011;56358;56.328;43.992;2023-01-01T10:19:31;4.97;;;2.30;;
69246;SDS011;56358;56.328;43.992;2023-01-01T10:21:36;4.47;;;2.50;;
69246;SDS011;56358;56.328;43.992;2023-01-01T10:23:44;4.78;;;2.40;;
69246;SDS011;56358;56.328;43.992;2023-01-01T10:25:49;4.68;;;2.40;;
69246;SDS011;56358;56.328;43.992;2023-01-01T10:27:51;6.22;;;2.80;;
69246;SDS011;56358;56.328;43.992;2023-01-01T10:29:56;5.85;;;2.78;;
69246;SDS011;56358;56.328;43.992;2023-01-01T10:31:59;6.13;;;2.50;;
69246;SDS011;56358;56.328;43.992;2023-01-01T10:34:25;5.43;;;2.60;;
69246;SDS011;56358;56.328;43.992;2023-01-01T10:36:28;4.85;;;2.88;;
69246;SDS011;56358;56.328;43.992;2023-01-01T10:38:29;4.53;;;2.05;;
69246;SDS011;56358;56.328;43.992;2023-01-01T10:40:30;5.30;;;2.40;;
69246;SDS011;56358;56.328;43.992;2023-01-01T10:42:31;5.10;;;2.45;;
69246;SDS011;56358;56.328;43.992;2023-01-01T10:44:32;5.30;;;2.88;;
69246;SDS011;56358;56.328;43.992;2023-01-01T10:46:34;5.97;;;2.50;;
69246;SDS011;56358;56.328;43.992;2023-01-01T10:48:39;5.10;;;2.00;;
69246;SDS011;56358;56.328;43.992;2023-01-01T10:50:45;6.53;;;2.53;;
69246;SDS011;56358;56.328;43.992;2023-01-01T10:52:55;4.65;;;2.20;;
69246;SDS011;56358;56.328;43.992;2023-01-01T10:54:56;4.93;;;2.05;;
69246;SDS011;56358;56.328;43.992;2023-01-01T10:56:58;5.22;;;2.60;;
69246;SDS011;56358;56.328;43.992;2023-01-01T11:01:36;4.40;;;2.38;;
69246;SDS011;56358;56.328;43.992;2023-01-01T11:03:50;5.43;;;3.03;;
69246;SDS011;56358;56.328;43.992;2023-01-01T11:06:04;5.63;;;2.75;;
69246;SDS011;56358;56.328;43.992;2023-01-01T11:08:16;4.80;;;2.22;;
69246;SDS011;56358;56.328;43.992;2023-01-01T11:10:19;6.55;;;2.58;;
69246;SDS011;56358;56.328;43.992;2023-01-01T11:12:23;5.28;;;2.20;;
69246;SDS011;56358;56.328;43.992;2023-01-01T11:16:50;5.95;;;2.63;;
69246;SDS011;56358;56.328;43.992;2023-01-01T11:18:58;4.80;;;2.40;;
69246;SDS011;56358;56.328;43.992;2023-01-01T11:21:02;5.63;;;2.75;;
69246;SDS011;56358;56.328;43.992;2023-01-01T11:23:17;5.35;;;2.60;;
69246;SDS011;56358;56.328;43.992;2023-01-01T11:25:30;6.60;;;3.22;;
69246;SDS011;56358;56.328;43.992;2023-01-01T11:27:32;6.75;;;3.70;;
69246;SDS011;56358;56.328;43.992;2023-01-01T11:29:32;5.20;;;2.78;;
69246;SDS011;56358;56.328;43.992;2023-01-01T11:31:34;5.88;;;2.95;;
69246;SDS011;56358;56.328;43.992;2023-01-01T11:33:47;4.95;;;2.53;;
69246;SDS011;56358;56.328;43.992;2023-01-01T11:35:53;6.07;;;2.90;;
69246;SDS011;56358;56.328;43.992;2023-01-01T11:37:56;5.50;;;2.80;;
69246;SDS011;56358;56.328;43.992;2023-01-01T11:39:57;7.47;;;2.85;;
69246;SDS011;56358;56.328;43.992;2023-01-01T11:41:59;5.07;;;2.50;;
69246;SDS011;56358;56.328;43.992;2023-01-01T11:44:00;5.35;;;3.30;;
69246;SDS011;56358;56.328;43.992;2023-01-01T11:46:04;4.65;;;2.60;;
69246;SDS011;56358;56.328;43.992;2023-01-01T11:52:36;5.97;;;2.58;;
69246;SDS011;56358;56.328;43.992;2023-01-01T11:54:39;5.40;;;2.67;;
69246;SDS011;56358;56.328;43.992;2023-01-01T11:56:41;4.97;;;2.60;;
69246;SDS011;56358;56.328;43.992;2023-01-01T12:01:01;7.57;;;3.58;;
69246;SDS011;56358;56.328;43.992;2023-01-01T12:05:25;5.97;;;2.50;;
69246;SDS011;56358;56.328;43.992;2023-01-01T12:07:37;5.75;;;3.25;;
69246;SDS011;56358;56.328;43.992;2023-01-01T12:14:48;5.65;;;2.65;;
69246;SDS011;56358;56.328;43.992;2023-01-01T12:17:03;5.45;;;2.58;;
69246;SDS011;56358;56.328;43.992;2023-01-01T12:19:14;4.90;;;2.78;;
69246;SDS011;56358;56.328;43.992;2023-01-01T12:23:27;6.32;;;3.05;;
69246;SDS011;56358;56.328;43.992;2023-01-01T12:26:12;6.88;;;3.05;;
69246;SDS011;56358;56.328;43.992;2023-01-01T12:46:46;5.78;;;2.83;;
69246;SDS011;56358;56.328;43.992;2023-01-01T12:53:52;5.20;;;2.55;;
69246;SDS011;56358;56.328;43.992;2023-01-01T13:01:12;3.85;;;2.40;;
69246;SDS011;56358;56.328;43.992;2023-01-01T13:03:23;6.15;;;2.33;;
69246;SDS011;56358;56.328;43.992;2023-01-01T13:05:41;3.72;;;2.10;;
69246;SDS011;56358;56.328;43.992;2023-01-01T13:07:47;4.05;;;2.72;;
69246;SDS011;56358;56.328;43.992;2023-01-01T13:09:51;5.63;;;2.55;;
69246;SDS011;56358;56.328;43.992;2023-01-01T13:11:54;6.25;;;3.00;;
69246;SDS011;56358;56.328;43.992;2023-01-01T13:13:58;5.35;;;2.90;;
69246;SDS011;56358;56.328;43.992;2023-01-01T13:15:59;5.63;;;3.30;;
69246;SDS011;56358;56.328;43.992;2023-01-01T13:18:00;4.85;;;2.70;;
69246;SDS011;56358;56.328;43.992;2023-01-01T13:20:27;5.53;;;2.60;;
69246;SDS011;56358;56.328;43.992;2023-01-01T13:24:29;4.35;;;2.58;;
69246;SDS011;56358;56.328;43.992;2023-01-01T13:26:30;4.57;;;2.53;;
69246;SDS011;56358;56.328;43.992;2023-01-01T13:28:31;5.97;;;2.78;;
69246;SDS011;56358;56.328;43.992;2023-01-01T13:35:23;5.20;;;2.70;;
69246;SDS011;56358;56.328;43.992;2023-01-01T13:37:24;5.78;;;2.60;;
69246;SDS011;56358;56.328;43.992;2023-01-01T13:41:53;6.45;;;2.80;;
69246;SDS011;56358;56.328;43.992;2023-01-01T13:46:01;4.68;;;2.60;;
69246;SDS011;56358;56.328;43.992;2023-01-01T13:50:24;3.83;;;2.13;;
69246;SDS011;56358;56.328;43.992;2023-01-01T13:52:45;4.10;;;2.40;;
69246;SDS011;56358;56.328;43.992;2023-01-01T13:59:59;4.82;;;2.42;;
69246;SDS011;56358;56.328;43.992;2023-01-01T14:02:25;4.47;;;2.40;;
69246;SDS011;56358;56.328;43.992;2023-01-01T14:06:41;6.03;;;2.67;;
69246;SDS011;56358;56.328;43.992;2023-01-01T14:08:59;5.97;;;2.40;;
69246;SDS011;56358;56.328;43.992;2023-01-01T14:11:14;5.43;;;2.50;;
69246;SDS011;56358;56.328;43.992;2023-01-01T14:13:18;6.13;;;3.10;;
69246;SDS011;56358;56.328;43.992;2023-01-01T14:17:28;4.22;;;2.15;;